createdAt,value
2022-10-01T00:00:17.108Z,4.993056
2022-10-01T00:05:17.056Z,4.891204
2022-10-01T00:10:17.194Z,4.736111
2022-10-01T00:15:17.493Z,5.023148
2022-10-01T00:20:17.451Z,5.724444
2022-10-01T00:25:17.253Z,6.113426
2022-10-01T00:30:17.105Z,5.902222
2022-10-01T00:35:17.795Z,5.933333
2022-10-01T00:40:17.164Z,6.439815
2022-10-01T00:45:17.338Z,6.877315
2022-10-01T00:50:17.155Z,6.965278
2022-10-01T00:55:17.247Z,7.016204
2022-10-01T01:00:22.237Z,7.126667
2022-10-01T01:05:17.190Z,7.083333
2022-10-01T01:10:17.221Z,6.796296
2022-10-01T01:15:17.285Z,6.688889
2022-10-01T01:20:17.125Z,6.928241
2022-10-01T01:25:17.163Z,7.117778
2022-10-01T01:30:17.334Z,7.256944
2022-10-01T01:35:17.462Z,7.238426
2022-10-01T01:40:17.204Z,7.178241
2022-10-01T01:45:17.080Z,7.175926
2022-10-01T01:50:17.151Z,7.115741
2022-10-01T01:55:17.109Z,7.229167
2022-10-01T02:00:17.194Z,7.305556
2022-10-01T02:05:17.213Z,7.148148
2022-10-01T02:10:17.193Z,7.138889
2022-10-01T02:15:17.251Z,7.131944
2022-10-01T02:20:17.718Z,7.127315
2022-10-01T02:25:17.206Z,7.150463
2022-10-01T02:30:17.210Z,7.117778
2022-10-01T02:35:17.058Z,7.233796
2022-10-01T02:40:17.035Z,7.252315
2022-10-01T02:45:17.075Z,7.266204
2022-10-01T02:50:17.057Z,7.298611
2022-10-01T02:55:17.119Z,7.344907
2022-10-01T03:00:17.247Z,7.393333
2022-10-01T03:05:17.350Z,7.412037
2022-10-01T03:10:17.100Z,7.377315
2022-10-01T03:15:17.177Z,7.423611
2022-10-01T03:20:16.991Z,7.391204
2022-10-01T03:25:17.048Z,7.467593
2022-10-01T03:30:17.085Z,7.405093
2022-10-01T03:35:17.106Z,7.365741
2022-10-01T03:40:17.060Z,7.368056
2022-10-01T03:45:16.997Z,7.460648
2022-10-01T03:50:17.140Z,7.425926
2022-10-01T03:55:17.298Z,7.365741
2022-10-01T04:00:16.942Z,7.245370
2022-10-01T04:05:17.016Z,7.261574
2022-10-01T04:10:17.245Z,7.235556
2022-10-01T04:15:17.070Z,7.171296
2022-10-01T04:20:16.899Z,7.118056
2022-10-01T04:25:17.355Z,6.967593
2022-10-01T04:30:16.967Z,6.953333
2022-10-01T04:35:17.220Z,7.120370
2022-10-01T04:40:16.908Z,7.328704
2022-10-01T04:45:17.051Z,7.479167
2022-10-01T04:50:17.218Z,7.435185
2022-10-01T04:55:17.151Z,7.491111
2022-10-01T05:00:16.902Z,7.527778
2022-10-01T05:05:16.873Z,7.476852
2022-10-01T05:10:16.981Z,7.528889
2022-10-01T05:15:17.154Z,7.451389
2022-10-01T05:20:16.997Z,7.308889
2022-10-01T05:25:17.042Z,7.335648
2022-10-01T05:30:17.198Z,7.248889
2022-10-01T05:35:17.402Z,7.168889
2022-10-01T05:40:16.863Z,7.194444
2022-10-01T05:45:16.840Z,7.315556
2022-10-01T05:50:17.582Z,7.564815
2022-10-01T05:55:16.991Z,7.680556
2022-10-01T06:00:17.036Z,7.865741
2022-10-01T06:05:16.888Z,8.062500
2022-10-01T06:10:17.324Z,8.122685
2022-10-01T06:15:17.450Z,8.219907
2022-10-01T06:20:16.946Z,8.644444
2022-10-01T06:25:17.022Z,8.975556
2022-10-01T06:30:17.003Z,9.111111
2022-10-01T06:35:16.910Z,9.157407
2022-10-01T06:40:16.901Z,9.247685
2022-10-01T06:45:16.841Z,9.500000
2022-10-01T06:50:17.110Z,9.597222
2022-10-01T06:55:17.029Z,9.842593
2022-10-01T07:00:17.182Z,10.020833
2022-10-01T07:05:16.929Z,10.027778
2022-10-01T07:10:16.951Z,10.082222
2022-10-01T07:15:17.219Z,10.192130
2022-10-01T07:20:16.961Z,10.259259
2022-10-01T07:25:17.056Z,10.402778
2022-10-01T07:30:16.920Z,10.550926
2022-10-01T07:35:17.186Z,10.645833
2022-10-01T07:40:17.093Z,10.664352
2022-10-01T07:45:16.815Z,10.650463
2022-10-01T07:50:16.885Z,10.793981
2022-10-01T07:55:16.900Z,10.935185
2022-10-01T08:00:16.844Z,10.956019
2022-10-01T08:05:16.851Z,11.048889
2022-10-01T08:10:17.164Z,11.197778
2022-10-01T08:15:16.976Z,11.365741
2022-10-01T08:20:17.050Z,11.476852
2022-10-01T08:25:17.077Z,11.685185
2022-10-01T08:30:17.117Z,11.817130
2022-10-01T08:35:16.806Z,11.898148
2022-10-01T08:40:16.970Z,11.942130
2022-10-01T08:45:16.922Z,11.977778
2022-10-01T08:50:17.066Z,12.039352
2022-10-01T08:55:16.869Z,12.113426
2022-10-01T09:00:16.826Z,12.137778
2022-10-01T09:05:16.817Z,12.252315
2022-10-01T09:10:16.898Z,12.275463
2022-10-01T09:15:17.132Z,12.220000
2022-10-01T09:20:16.949Z,12.157407
2022-10-01T09:25:16.853Z,12.032407
2022-10-01T09:30:16.868Z,11.898148
2022-10-01T09:35:16.980Z,11.789352
2022-10-01T09:40:16.843Z,11.750000
2022-10-01T09:45:17.006Z,11.760000
2022-10-01T09:50:17.089Z,11.726667
2022-10-01T09:55:16.937Z,11.684444
2022-10-01T10:00:17.121Z,11.628889
2022-10-01T10:05:17.110Z,11.568889
2022-10-01T10:10:18.102Z,11.471111
2022-10-01T10:15:16.898Z,11.268889
2022-10-01T10:20:16.814Z,11.104167
2022-10-01T10:25:16.854Z,11.048611
2022-10-01T10:30:16.862Z,10.962963
2022-10-01T10:35:16.928Z,10.831019
2022-10-01T10:40:16.998Z,10.793981
2022-10-01T10:45:16.959Z,10.736111
2022-10-01T10:50:16.881Z,10.726852
2022-10-01T10:55:16.907Z,10.666667
2022-10-01T11:00:16.759Z,10.622685
2022-10-01T11:05:16.927Z,10.622222
2022-10-01T11:10:16.992Z,10.569444
2022-10-01T11:15:16.824Z,10.511574
2022-10-01T11:20:20.604Z,10.493056
2022-10-01T11:25:16.817Z,10.458333
2022-10-01T11:30:16.850Z,10.462222
2022-10-01T11:35:16.779Z,10.468889
2022-10-01T11:40:16.942Z,10.518519
2022-10-01T11:45:16.763Z,10.562500
2022-10-01T11:50:17.189Z,10.585648
2022-10-01T11:55:16.721Z,10.629630
2022-10-01T12:00:17.042Z,10.701389
2022-10-01T12:05:17.425Z,10.770833
2022-10-01T12:10:16.983Z,10.840278
2022-10-01T12:15:16.770Z,10.886667
2022-10-01T12:20:16.782Z,10.916667
2022-10-01T12:25:16.998Z,10.953704
2022-10-01T12:30:16.853Z,10.926667
2022-10-01T12:35:16.855Z,10.905093
2022-10-01T12:40:17.087Z,10.888889
2022-10-01T12:45:17.121Z,10.854167
2022-10-01T12:50:16.980Z,10.780093
2022-10-01T12:55:16.811Z,10.695556
2022-10-01T13:00:16.839Z,10.666667
2022-10-01T13:05:16.802Z,10.708333
2022-10-01T13:10:16.749Z,10.797778
2022-10-01T13:15:16.882Z,10.888889
2022-10-01T13:20:16.811Z,10.953704
2022-10-01T13:25:16.860Z,11.043981
2022-10-01T13:30:16.834Z,11.144444
2022-10-01T13:35:16.831Z,11.291667
2022-10-01T13:40:16.995Z,11.458333
2022-10-01T13:45:16.923Z,11.668889
2022-10-01T13:50:16.906Z,11.847222
2022-10-01T13:55:16.855Z,11.972222
2022-10-01T14:00:16.769Z,12.122222
2022-10-01T14:05:16.862Z,12.113426
2022-10-01T14:10:17.022Z,12.002315
2022-10-01T14:15:16.895Z,12.037037
2022-10-01T14:20:16.688Z,12.173611
2022-10-01T14:25:16.774Z,12.245370
2022-10-01T14:30:17.064Z,12.192130
2022-10-01T14:35:17.066Z,12.162037
2022-10-01T14:40:16.918Z,12.171111
2022-10-01T14:45:16.958Z,12.224444
2022-10-01T14:50:17.337Z,12.224537
2022-10-01T14:55:16.813Z,12.287037
2022-10-01T15:00:16.729Z,12.356481
2022-10-01T15:05:20.133Z,12.604444
2022-10-01T15:10:17.198Z,12.918981
2022-10-01T15:15:16.815Z,12.888889
2022-10-01T15:20:16.903Z,12.930556
2022-10-01T15:25:16.941Z,12.842222
2022-10-01T15:30:16.750Z,12.701389
2022-10-01T15:35:16.862Z,12.728889
2022-10-01T15:40:17.137Z,12.722222
2022-10-01T15:45:16.715Z,12.652778
2022-10-01T15:50:16.904Z,12.562500
2022-10-01T15:55:16.727Z,12.493333
2022-10-01T16:00:16.722Z,12.405093
2022-10-01T16:05:16.661Z,12.375000
2022-10-01T16:10:16.776Z,12.335648
2022-10-01T16:15:17.046Z,12.293981
2022-10-01T16:20:16.675Z,12.196759
2022-10-01T16:25:16.642Z,12.166667
2022-10-01T16:30:16.926Z,12.164352
2022-10-01T16:35:16.931Z,12.083333
2022-10-01T16:40:17.246Z,12.009259
2022-10-01T16:45:16.840Z,12.000000
2022-10-01T16:50:16.782Z,11.944444
2022-10-01T16:55:16.649Z,11.912037
2022-10-01T17:00:16.697Z,11.939815
2022-10-01T17:05:16.702Z,11.979167
2022-10-01T17:10:16.778Z,12.055556
2022-10-01T17:15:16.692Z,12.074074
2022-10-01T17:20:16.830Z,12.039352
2022-10-01T17:25:16.667Z,12.023148
2022-10-01T17:30:16.596Z,11.972222
2022-10-01T17:35:16.603Z,11.951389
2022-10-01T17:40:16.680Z,12.024444
2022-10-01T17:45:16.619Z,12.085648
2022-10-01T17:50:16.795Z,12.115556
2022-10-01T17:55:16.770Z,12.164444
2022-10-01T18:00:16.618Z,12.226852
2022-10-01T18:05:16.757Z,12.254630
2022-10-01T18:10:16.782Z,12.296296
2022-10-01T18:15:16.766Z,12.270833
2022-10-01T18:20:16.846Z,12.271111
2022-10-01T18:25:16.826Z,12.275463
2022-10-01T18:30:17.261Z,12.228889
2022-10-01T18:35:17.361Z,12.224537
2022-10-01T18:40:16.662Z,12.219907
2022-10-01T18:45:16.630Z,12.145833
2022-10-01T18:50:16.612Z,12.046667
2022-10-01T18:55:20.978Z,12.023148
2022-10-01T19:00:16.575Z,11.958333
2022-10-01T19:05:16.846Z,11.837963
2022-10-01T19:10:16.956Z,11.747685
2022-10-01T19:15:16.665Z,11.745370
2022-10-01T19:20:16.782Z,11.780093
2022-10-01T19:25:16.695Z,11.773148
2022-10-01T19:30:16.677Z,11.770833
2022-10-01T19:35:16.978Z,11.789352
2022-10-01T19:40:16.636Z,11.736111
2022-10-01T19:45:16.612Z,11.617778
2022-10-01T19:50:16.749Z,11.550926
2022-10-01T19:55:17.048Z,11.479167
2022-10-01T20:00:16.636Z,11.483796
2022-10-01T20:05:16.826Z,11.474537
2022-10-01T20:10:17.111Z,11.486111
2022-10-01T20:15:16.799Z,11.446759
2022-10-01T20:20:16.651Z,11.370370
2022-10-01T20:25:16.548Z,11.335556
2022-10-01T20:30:16.686Z,11.351852
2022-10-01T20:35:16.543Z,11.328704
2022-10-01T20:40:16.949Z,11.236111
2022-10-01T20:45:16.525Z,11.162037
2022-10-01T20:50:16.770Z,11.131944
2022-10-01T20:55:16.708Z,11.092593
2022-10-01T21:00:16.649Z,11.064444
2022-10-01T21:05:16.614Z,10.990741
2022-10-01T21:10:16.693Z,10.902222
2022-10-01T21:15:16.669Z,10.895556
2022-10-01T21:20:16.682Z,10.891111
2022-10-01T21:25:16.516Z,10.849537
2022-10-01T21:30:16.696Z,10.833333
2022-10-01T21:35:16.811Z,10.831019
2022-10-01T21:40:16.810Z,10.861111
2022-10-01T21:45:16.593Z,10.814815
2022-10-01T21:50:16.609Z,10.733796
2022-10-01T21:55:16.604Z,10.747685
2022-10-01T22:00:17.270Z,10.706019
2022-10-01T22:05:16.690Z,10.626667
2022-10-01T22:10:16.914Z,10.560185
2022-10-01T22:15:16.566Z,10.592593
2022-10-01T22:20:16.778Z,10.682870
2022-10-01T22:25:16.547Z,10.731481
2022-10-01T22:30:16.603Z,10.736111
2022-10-01T22:35:16.573Z,10.796296
2022-10-01T22:40:16.666Z,10.898148
2022-10-01T22:45:16.569Z,10.986111
2022-10-01T22:50:16.654Z,11.060185
2022-10-01T22:55:16.518Z,11.032407
2022-10-01T23:00:16.510Z,10.974537
2022-10-01T23:05:16.533Z,10.916667
2022-10-01T23:10:16.903Z,10.898148
2022-10-01T23:15:16.516Z,10.870370
2022-10-01T23:20:16.612Z,10.828704
2022-10-01T23:25:16.547Z,10.770833
2022-10-01T23:30:16.950Z,10.754630
2022-10-01T23:35:16.508Z,10.870370
2022-10-01T23:40:16.550Z,10.983796
2022-10-01T23:45:16.571Z,10.953704
2022-10-01T23:50:16.726Z,10.944444
2022-10-01T23:55:16.518Z,10.942130
